Time;durP1;ratioP1;P1;durP2;ratioP2;P2;SDS_P1;SDS_P2;PMS_P1;PMS_P2;Temp;Humidity;BMP_temperature;BMP_pressure;BME280_temperature;BME280_humidity;BME280_pressure;Samples;Min_cycle;Max_cycle;Signal;HPM_P1;HPM_P2
2022/12/25 00:02:21;;;;;;;9.83;3.20;;;12.80;99.90;;;;;;5052390;28;20207;-30
2022/12/25 00:04:49;;;;;;;12.47;3.67;;;12.80;99.90;;;;;;5053567;28;20808;-30
2022/12/25 00:07:18;;;;;;;6.63;3.63;;;12.80;99.90;;;;;;5045402;28;20311;-30
2022/12/25 00:09:48;;;;;;;8.87;3.20;;;12.80;99.90;;;;;;5057779;28;20211;-30
2022/12/25 00:12:18;;;;;;;7.37;2.90;;;12.90;99.90;;;;;;5064602;28;20600;-30
2022/12/25 00:14:47;;;;;;;7.87;3.40;;;12.90;99.90;;;;;;5065398;28;20218;-30
2022/12/25 00:17:15;;;;;;;7.13;3.50;;;12.90;99.90;;;;;;5060817;28;20286;-30
2022/12/25 00:19:44;;;;;;;7.83;2.97;;;12.90;99.90;;;;;;5047138;28;20221;-30
2022/12/25 00:22:11;;;;;;;5.97;2.93;;;12.90;99.90;;;;;;5043696;28;20614;-30
2022/12/25 00:24:38;;;;;;;5.37;3.07;;;12.90;99.90;;;;;;5065611;28;20219;-30
2022/12/25 00:27:06;;;;;;;9.97;2.90;;;12.90;99.90;;;;;;5063449;28;20623;-30
2022/12/25 00:29:35;;;;;;;7.50;3.20;;;12.90;99.90;;;;;;5053653;28;20203;-30
2022/12/25 00:32:03;;;;;;;4.93;3.10;;;12.90;99.90;;;;;;5063111;28;20222;-32
2022/12/25 00:34:32;;;;;;;6.50;3.13;;;12.90;99.90;;;;;;5049044;28;20215;-30
2022/12/25 00:37:00;;;;;;;10.07;3.37;;;12.90;99.90;;;;;;5045166;28;20303;-30
2022/12/25 00:39:29;;;;;;;6.23;3.03;;;12.90;99.90;;;;;;5044995;28;20208;-30
2022/12/25 00:44:45;;;;;;;7.90;3.77;;;12.90;99.90;;;;;;5044822;28;20725;-30
2022/12/25 00:47:15;;;;;;;8.10;3.20;;;12.90;99.90;;;;;;5044179;28;20248;-30
2022/12/25 00:49:43;;;;;;;4.73;2.37;;;12.90;99.90;;;;;;5044534;28;20204;-30
2022/12/25 00:52:10;;;;;;;4.87;2.57;;;12.90;99.90;;;;;;5043296;28;20725;-30
2022/12/25 00:54:42;;;;;;;5.67;3.03;;;12.90;99.90;;;;;;5045808;28;20216;-30
2022/12/25 00:57:12;;;;;;;6.90;2.70;;;12.90;99.90;;;;;;5043681;28;20327;-30
2022/12/25 00:59:41;;;;;;;8.37;3.00;;;12.90;99.90;;;;;;5045371;28;20211;-30
2022/12/25 01:02:24;;;;;;;7.20;2.97;;;12.90;99.90;;;;;;5048694;28;20295;-30
2022/12/25 01:04:55;;;;;;;5.67;2.50;;;12.90;99.90;;;;;;5047374;28;20242;-30
2022/12/25 01:07:27;;;;;;;8.83;3.17;;;12.90;99.90;;;;;;5048427;28;20239;-30
2022/12/25 01:12:42;;;;;;;5.30;2.73;;;12.90;99.90;;;;;;5050768;28;20235;-30
2022/12/25 01:15:11;;;;;;;8.27;2.57;;;12.90;99.90;;;;;;5049028;28;20649;-30
2022/12/25 01:17:38;;;;;;;5.77;2.63;;;12.90;99.90;;;;;;5048548;28;20207;-30
2022/12/25 01:20:10;;;;;;;4.67;2.30;;;12.90;99.90;;;;;;5048884;28;20228;-30
2022/12/25 01:22:39;;;;;;;6.90;2.57;;;12.90;99.90;;;;;;5048587;28;20216;-30
2022/12/25 01:25:10;;;;;;;6.87;2.70;;;12.90;99.90;;;;;;5067183;28;20257;-30
2022/12/25 01:27:42;;;;;;;8.77;2.63;;;12.90;99.90;;;;;;5060130;28;20591;-30
2022/12/25 01:30:09;;;;;;;4.87;2.90;;;12.90;99.90;;;;;;5067039;28;20474;-31
2022/12/25 01:32:37;;;;;;;7.10;2.60;;;12.90;99.90;;;;;;5047527;28;20698;-30
2022/12/25 01:35:04;;;;;;;6.27;2.60;;;12.90;99.90;;;;;;5055249;28;20218;-30
2022/12/25 01:37:32;;;;;;;7.67;2.30;;;12.90;99.90;;;;;;5068882;28;20281;-29
2022/12/25 01:39:59;;;;;;;4.70;2.40;;;12.90;99.90;;;;;;5068203;28;20254;-29
2022/12/25 01:42:27;;;;;;;6.80;2.53;;;12.90;99.90;;;;;;5066277;28;20231;-29
2022/12/25 01:45:25;;;;;;;6.73;2.77;;;12.90;99.90;;;;;;5056258;28;21081;-29
2022/12/25 01:47:52;;;;;;;7.93;2.93;;;12.90;99.90;;;;;;5047916;28;20211;-29
2022/12/25 01:50:20;;;;;;;5.43;2.50;;;12.80;99.90;;;;;;5047679;28;20322;-30
2022/12/25 01:52:48;;;;;;;5.13;2.20;;;12.80;99.90;;;;;;5047623;28;20694;-29
2022/12/25 01:55:15;;;;;;;6.13;2.60;;;12.80;99.90;;;;;;5047076;28;20306;-30
2022/12/25 01:57:43;;;;;;;5.40;2.40;;;12.80;99.90;;;;;;5064227;28;20276;-29
2022/12/25 02:00:15;;;;;;;5.83;2.30;;;12.80;99.90;;;;;;5066009;28;20747;-30
2022/12/25 02:02:44;;;;;;;4.47;2.27;;;12.80;99.90;;;;;;5058869;28;20204;-29
2022/12/25 02:05:31;;;;;;;4.53;2.10;;;12.80;99.90;;;;;;5055648;28;20239;-30
2022/12/25 02:08:06;;;;;;;4.70;2.20;;;12.80;99.90;;;;;;5046024;28;20207;-29
2022/12/25 02:10:37;;;;;;;7.17;2.80;;;12.80;99.90;;;;;;5050021;28;20744;-29
2022/12/25 02:13:06;;;;;;;5.23;2.00;;;12.80;99.90;;;;;;5046004;28;20247;-30
2022/12/25 02:15:46;;;;;;;6.87;2.07;;;12.80;99.90;;;;;;5047404;28;20570;-29
2022/12/25 02:18:52;;;;;;;6.87;2.30;;;12.80;99.90;;;;;;5052097;28;20277;-30
2022/12/25 02:21:41;;;;;;;5.33;2.00;;;12.80;99.90;;;;;;5064230;28;20203;-29
2022/12/25 02:24:18;;;;;;;6.43;2.17;;;12.80;99.90;;;;;;5056796;28;20250;-29
2022/12/25 02:26:56;;;;;;;5.67;2.23;;;12.80;99.90;;;;;;5065557;28;20206;-29
2022/12/25 02:29:36;;;;;;;7.17;2.43;;;12.80;99.90;;;;;;5066557;28;20203;-29
2022/12/25 02:32:08;;;;;;;4.40;2.07;;;12.80;99.90;;;;;;5067866;28;20245;-29
2022/12/25 02:34:47;;;;;;;4.97;2.03;;;12.80;99.90;;;;;;5064373;28;20192;-30
2022/12/25 02:37:44;;;;;;;5.60;2.53;;;12.80;99.90;;;;;;5047407;28;20506;-29
2022/12/25 02:40:19;;;;;;;4.87;1.83;;;12.80;99.90;;;;;;5047748;28;20224;-30
2022/12/25 03:08:25;;;;;;;6.07;2.10;;;12.80;99.90;;;;;;5067017;28;20210;-29
2022/12/25 03:16:51;;;;;;;5.63;2.10;;;12.80;99.90;;;;;;5046786;28;20238;-29
2022/12/25 03:27:54;;;;;;;4.07;1.80;;;12.80;99.90;;;;;;5045843;28;20309;-29
2022/12/25 03:35:21;;;;;;;4.80;2.13;;;12.80;99.90;;;;;;5038081;28;20215;-29
2022/12/25 04:37:28;;;;;;;4.07;1.47;;;12.80;99.90;;;;;;5063647;28;20280;-29
2022/12/25 04:39:55;;;;;;;5.87;1.80;;;12.80;99.90;;;;;;5061024;28;20200;-30
2022/12/25 04:42:25;;;;;;;2.73;1.80;;;12.80;99.90;;;;;;5043742;28;20216;-30
2022/12/25 04:44:52;;;;;;;3.83;1.60;;;12.80;99.90;;;;;;5043489;28;20289;-29
2022/12/25 04:47:24;;;;;;;6.27;1.97;;;12.80;99.90;;;;;;5044827;28;20193;-29
2022/12/25 04:49:54;;;;;;;5.27;1.60;;;12.80;99.90;;;;;;5044566;28;20286;-30
2022/12/25 04:52:23;;;;;;;4.70;2.17;;;12.80;99.90;;;;;;5045396;28;20220;-30
2022/12/25 04:54:51;;;;;;;5.80;1.97;;;12.80;99.90;;;;;;5044990;28;20831;-29
2022/12/25 04:57:18;;;;;;;4.33;1.80;;;12.80;99.90;;;;;;5044631;28;20188;-29
2022/12/25 04:59:47;;;;;;;3.67;1.63;;;12.80;99.90;;;;;;5047125;28;20216;-29
2022/12/25 05:02:15;;;;;;;3.73;1.80;;;12.80;99.90;;;;;;5043436;28;20216;-29
2022/12/25 05:04:45;;;;;;;3.57;1.70;;;12.80;99.90;;;;;;5043443;28;20208;-29
2022/12/25 05:07:12;;;;;;;3.13;1.80;;;12.90;99.90;;;;;;5050109;28;20337;-29
2022/12/25 05:09:44;;;;;;;2.77;1.70;;;12.90;99.90;;;;;;5060043;28;20993;-29
2022/12/25 05:12:12;;;;;;;4.30;1.77;;;12.90;99.90;;;;;;5061863;28;20221;-30
2022/12/25 05:14:40;;;;;;;3.63;1.73;;;12.90;99.90;;;;;;5065530;28;20203;-29
2022/12/25 05:17:12;;;;;;;4.20;2.00;;;12.90;99.90;;;;;;5061744;28;20694;-29
2022/12/25 05:19:41;;;;;;;4.67;2.00;;;12.90;99.90;;;;;;5054952;28;20196;-29
2022/12/25 05:22:09;;;;;;;5.00;2.07;;;12.90;99.90;;;;;;5044697;28;20323;-29
2022/12/25 05:24:36;;;;;;;3.23;1.53;;;12.90;99.90;;;;;;5045676;28;20767;-30
2022/12/25 05:27:03;;;;;;;4.53;1.60;;;12.90;99.90;;;;;;5042448;28;20757;-29
2022/12/25 05:29:32;;;;;;;4.33;1.73;;;12.90;99.90;;;;;;5044838;28;20682;-29
2022/12/25 05:32:00;;;;;;;2.53;1.50;;;12.90;99.90;;;;;;5044318;28;20600;-29
2022/12/25 05:34:28;;;;;;;4.50;1.93;;;12.90;99.90;;;;;;5045549;28;20208;-29
2022/12/25 05:36:55;;;;;;;2.70;1.30;;;12.90;99.90;;;;;;5044548;28;20524;-29
2022/12/25 05:39:23;;;;;;;3.83;1.80;;;12.90;99.90;;;;;;5063538;28;20207;-30
2022/12/25 05:41:52;;;;;;;6.67;2.00;;;12.90;99.90;;;;;;5049091;28;20221;-29
2022/12/25 05:44:19;;;;;;;3.23;1.30;;;12.90;99.90;;;;;;5065133;28;20231;-29
2022/12/25 05:46:46;;;;;;;3.23;1.50;;;12.90;99.90;;;;;;5066701;28;20649;-29
2022/12/25 05:49:14;;;;;;;3.83;1.60;;;12.90;99.90;;;;;;5052764;28;20204;-29
2022/12/25 05:51:41;;;;;;;4.03;1.80;;;13.00;99.90;;;;;;5052623;28;20271;-30
2022/12/25 05:54:10;;;;;;;3.47;1.60;;;12.90;99.90;;;;;;5068261;28;20272;-29
2022/12/25 05:56:37;;;;;;;4.00;1.70;;;12.90;99.90;;;;;;5045875;28;20215;-29
2022/12/25 05:59:07;;;;;;;2.97;1.40;;;13.00;99.90;;;;;;5061801;28;20311;-30
2022/12/25 06:01:34;;;;;;;4.23;1.47;;;12.90;99.90;;;;;;5049271;28;20196;-29
2022/12/25 06:04:01;;;;;;;4.13;1.70;;;12.90;99.90;;;;;;5053857;28;20314;-29
2022/12/25 06:06:38;;;;;;;3.73;1.53;;;12.90;99.90;;;;;;5058555;28;20778;-29
2022/12/25 06:09:05;;;;;;;4.03;2.00;;;12.90;99.90;;;;;;5065140;28;20293;-29
2022/12/25 06:11:37;;;;;;;3.53;1.80;;;12.90;99.90;;;;;;5065076;28;20310;-30
2022/12/25 06:14:07;;;;;;;2.03;1.30;;;12.90;99.90;;;;;;5057419;28;20234;-29
2022/12/25 06:16:34;;;;;;;2.77;1.80;;;12.90;99.90;;;;;;5059466;28;20522;-29
2022/12/25 06:19:04;;;;;;;2.67;1.40;;;12.90;99.90;;;;;;5060854;28;20256;-29
2022/12/25 06:21:32;;;;;;;5.07;1.60;;;12.90;99.90;;;;;;5067148;28;20637;-29
2022/12/25 06:24:02;;;;;;;2.43;1.60;;;12.90;99.90;;;;;;5056012;28;20239;-29
2022/12/25 06:26:29;;;;;;;3.23;2.23;;;12.90;99.90;;;;;;5052021;28;20226;-29
2022/12/25 06:28:57;;;;;;;3.47;1.67;;;13.00;99.90;;;;;;5066189;28;20231;-29
2022/12/25 06:31:26;;;;;;;3.77;1.83;;;12.90;99.90;;;;;;5065042;28;20292;-29
2022/12/25 06:33:58;;;;;;;5.17;1.53;;;12.90;99.90;;;;;;5054205;28;20276;-29
2022/12/25 06:36:28;;;;;;;3.67;1.33;;;12.90;99.90;;;;;;5064137;28;20199;-29
2022/12/25 06:38:59;;;;;;;2.90;1.40;;;12.90;99.90;;;;;;5061789;28;20314;-29
2022/12/25 06:41:28;;;;;;;3.00;1.20;;;12.90;99.90;;;;;;5065671;28;20601;-29
2022/12/25 06:43:58;;;;;;;3.40;1.40;;;12.90;99.90;;;;;;5066738;28;20292;-29
2022/12/25 06:46:28;;;;;;;3.17;1.30;;;12.90;99.90;;;;;;5066877;28;20280;-29
2022/12/25 06:48:59;;;;;;;2.97;1.40;;;12.90;99.90;;;;;;5054882;28;20213;-29
2022/12/25 06:51:35;;;;;;;4.13;1.60;;;12.90;99.90;;;;;;5048220;28;20243;-33
2022/12/25 06:54:03;;;;;;;2.00;1.20;;;12.80;99.90;;;;;;5062000;28;20195;-29
2022/12/25 06:56:33;;;;;;;4.13;1.60;;;12.80;99.90;;;;;;5045101;28;20605;-29
2022/12/25 06:59:09;;;;;;;1.97;1.03;;;12.80;99.90;;;;;;5058977;28;20200;-30
2022/12/25 07:01:48;;;;;;;3.70;1.47;;;12.80;99.90;;;;;;5054230;28;20245;-29
2022/12/25 07:04:25;;;;;;;5.20;1.17;;;12.80;99.90;;;;;;5045332;28;20223;-29
2022/12/25 07:06:55;;;;;;;1.43;1.20;;;12.70;99.90;;;;;;5060182;28;20721;-29
2022/12/25 07:09:24;;;;;;;3.83;1.27;;;12.70;99.90;;;;;;5055459;28;20208;-29
2022/12/25 07:12:13;;;;;;;1.30;1.10;;;12.70;99.90;;;;;;5047718;28;20200;-30
2022/12/25 07:14:40;;;;;;;2.53;1.20;;;12.60;99.90;;;;;;5046642;28;20303;-29
2022/12/25 07:17:10;;;;;;;3.47;1.30;;;12.60;99.90;;;;;;5057426;28;20238;-30
2022/12/25 07:19:38;;;;;;;2.70;1.30;;;12.60;99.90;;;;;;5060909;28;20208;-29
2022/12/25 07:22:16;;;;;;;2.00;1.33;;;12.60;99.90;;;;;;5046155;28;20312;-29
2022/12/25 07:24:45;;;;;;;2.03;1.20;;;12.60;99.90;;;;;;5059031;28;20230;-29
2022/12/25 07:27:13;;;;;;;2.30;1.40;;;12.50;99.90;;;;;;5043758;28;20900;-29
2022/12/25 07:29:40;;;;;;;3.43;1.40;;;12.50;99.90;;;;;;5054296;28;20748;-30
2022/12/25 07:32:07;;;;;;;1.40;1.30;;;12.50;99.90;;;;;;5059614;28;20325;-30
2022/12/25 07:34:39;;;;;;;4.23;1.50;;;12.50;99.90;;;;;;5049975;28;20216;-29
2022/12/25 07:37:07;;;;;;;2.87;1.47;;;12.50;99.90;;;;;;5056461;28;20203;-30
2022/12/25 07:39:36;;;;;;;2.73;1.30;;;12.50;99.90;;;;;;5059957;28;20273;-29
2022/12/25 07:42:09;;;;;;;1.87;1.10;;;12.50;99.90;;;;;;5054840;28;20240;-29
2022/12/25 07:44:36;;;;;;;3.30;1.30;;;12.50;99.90;;;;;;5059161;28;20316;-31
2022/12/25 07:47:03;;;;;;;2.57;1.40;;;12.50;99.90;;;;;;5064252;28;20593;-31
2022/12/25 07:49:33;;;;;;;1.77;1.20;;;12.50;99.90;;;;;;5062737;28;20215;-31
2022/12/25 07:52:03;;;;;;;3.07;1.53;;;12.50;99.90;;;;;;5056736;28;20563;-30
2022/12/25 07:54:30;;;;;;;2.23;1.40;;;12.50;99.90;;;;;;5054365;28;20236;-31
2022/12/25 07:56:57;;;;;;;3.47;1.57;;;12.50;99.90;;;;;;5052694;28;20647;-31
2022/12/25 07:59:29;;;;;;;4.07;1.47;;;12.50;99.90;;;;;;5063025;28;20204;-29
2022/12/25 08:01:58;;;;;;;3.47;1.50;;;12.50;99.90;;;;;;5059699;28;20211;-29
2022/12/25 08:04:26;;;;;;;3.43;1.97;;;12.50;99.90;;;;;;5049862;28;20231;-31
2022/12/25 08:06:55;;;;;;;3.27;1.50;;;12.50;99.90;;;;;;5063059;28;20701;-31
2022/12/25 08:09:22;;;;;;;2.23;1.40;;;12.50;99.90;;;;;;5058202;28;20212;-31
2022/12/25 08:11:49;;;;;;;2.40;1.40;;;12.50;99.90;;;;;;5055196;28;20270;-31
2022/12/25 08:14:19;;;;;;;3.30;1.60;;;12.50;99.90;;;;;;5058520;28;20704;-30
2022/12/25 08:16:46;;;;;;;3.13;1.70;;;12.50;99.90;;;;;;5043960;28;20299;-30
2022/12/25 08:19:13;;;;;;;5.73;1.70;;;12.50;99.90;;;;;;5049181;28;20203;-30
2022/12/25 08:21:41;;;;;;;3.33;1.90;;;12.60;99.90;;;;;;5048604;28;20632;-30
2022/12/25 08:24:08;;;;;;;2.73;1.70;;;12.60;99.90;;;;;;5059624;28;20203;-30
2022/12/25 08:26:35;;;;;;;3.23;1.80;;;12.60;99.90;;;;;;5062136;28;20565;-30
2022/12/25 08:29:02;;;;;;;2.53;1.80;;;12.60;99.90;;;;;;5048073;28;20316;-30
2022/12/25 08:31:33;;;;;;;1.67;1.47;;;12.60;99.90;;;;;;5048421;28;20381;-31
2022/12/25 08:34:07;;;;;;;2.83;1.50;;;12.60;99.90;;;;;;5059027;28;20584;-30
2022/12/25 08:36:35;;;;;;;4.13;1.77;;;12.60;99.90;;;;;;5051153;28;20715;-31
2022/12/25 08:39:04;;;;;;;3.23;1.80;;;12.60;99.90;;;;;;5044242;28;20310;-30
2022/12/25 08:41:36;;;;;;;2.93;1.70;;;12.60;99.90;;;;;;5045486;28;20251;-31
2022/12/25 08:44:04;;;;;;;1.97;1.77;;;12.60;99.90;;;;;;5043958;28;20219;-29
2022/12/25 08:46:35;;;;;;;3.93;2.07;;;12.60;99.90;;;;;;5056424;28;20227;-29
2022/12/25 08:49:02;;;;;;;3.80;2.00;;;12.60;99.90;;;;;;5043499;28;20266;-29
2022/12/25 08:51:36;;;;;;;3.30;2.00;;;12.60;99.90;;;;;;5044942;28;20239;-29
2022/12/25 08:54:07;;;;;;;2.13;1.70;;;12.60;99.90;;;;;;5060241;28;20199;-29
2022/12/25 08:56:37;;;;;;;4.10;1.83;;;12.60;99.90;;;;;;5060981;28;20219;-29
2022/12/25 08:59:05;;;;;;;2.23;1.60;;;12.60;99.90;;;;;;5064755;28;20208;-29
2022/12/25 09:01:34;;;;;;;2.20;1.90;;;12.60;99.90;;;;;;5052889;28;20215;-29
2022/12/25 09:04:01;;;;;;;4.53;2.17;;;12.60;99.90;;;;;;5052356;28;20232;-30
2022/12/25 09:06:29;;;;;;;3.87;2.40;;;12.60;99.90;;;;;;5056529;28;20306;-29
2022/12/25 09:08:56;;;;;;;4.10;2.27;;;12.60;99.90;;;;;;5048462;28;20313;-30
2022/12/25 09:11:23;;;;;;;3.13;2.07;;;12.60;99.90;;;;;;5042226;28;20189;-30
2022/12/25 09:13:50;;;;;;;4.37;2.13;;;12.60;99.90;;;;;;5053259;28;20281;-30
2022/12/25 09:16:21;;;;;;;3.90;2.43;;;12.60;99.90;;;;;;5061372;28;20295;-31
2022/12/25 09:18:50;;;;;;;3.77;2.47;;;12.60;99.90;;;;;;5055364;28;20298;-29
2022/12/25 09:21:17;;;;;;;2.93;2.33;;;12.60;99.90;;;;;;5045852;28;20208;-30
2022/12/25 09:23:47;;;;;;;3.17;2.27;;;12.60;99.90;;;;;;5059624;28;20227;-29
2022/12/25 09:26:19;;;;;;;3.47;2.40;;;12.60;99.90;;;;;;5046484;28;20683;-29
2022/12/25 09:28:47;;;;;;;3.70;2.50;;;12.60;99.90;;;;;;5062738;28;20204;-29
2022/12/25 09:31:21;;;;;;;3.47;2.30;;;12.60;99.90;;;;;;5050125;28;20244;-29
2022/12/25 09:33:58;;;;;;;3.60;2.43;;;12.60;99.90;;;;;;5067783;28;20701;-29
2022/12/25 09:36:26;;;;;;;4.90;2.67;;;12.60;99.90;;;;;;5047793;28;20583;-29
2022/12/25 09:38:53;;;;;;;4.73;3.00;;;12.60;99.90;;;;;;5052500;28;20251;-29
2022/12/25 09:41:44;;;;;;;5.30;3.57;;;12.60;99.90;;;;;;5066432;28;20318;-29
2022/12/25 09:44:29;;;;;;;4.60;3.57;;;12.60;99.90;;;;;;5048808;28;20287;-29
2022/12/25 09:47:13;;;;;;;4.87;3.63;;;12.60;99.90;;;;;;5054436;28;20288;-29
2022/12/25 09:49:48;;;;;;;4.83;3.57;;;12.60;99.90;;;;;;5062228;28;20296;-29
2022/12/25 09:52:26;;;;;;;6.13;3.80;;;12.60;99.90;;;;;;5057675;28;20200;-29
2022/12/25 09:55:08;;;;;;;4.60;4.10;;;12.60;99.90;;;;;;5047614;28;20202;-29
2022/12/25 09:57:42;;;;;;;6.57;4.13;;;12.60;99.90;;;;;;5046428;28;20219;-29
2022/12/25 10:00:15;;;;;;;5.97;4.40;;;12.60;99.90;;;;;;5048084;28;20258;-29
2022/12/25 10:02:49;;;;;;;5.03;4.40;;;12.60;99.90;;;;;;5047829;28;20221;-29
2022/12/25 10:05:35;;;;;;;4.17;3.77;;;12.60;99.90;;;;;;5048051;28;20210;-29
2022/12/25 10:08:02;;;;;;;4.17;3.57;;;12.70;99.90;;;;;;5047526;28;20236;-29
2022/12/25 10:10:41;;;;;;;3.97;3.63;;;12.70;99.90;;;;;;5055190;28;20315;-29
2022/12/25 10:13:33;;;;;;;5.07;3.50;;;12.70;99.90;;;;;;5049471;28;20207;-29
2022/12/25 10:16:12;;;;;;;4.83;3.80;;;12.70;99.90;;;;;;5056369;28;20691;-29
2022/12/25 10:19:24;;;;;;;4.60;3.50;;;12.70;99.90;;;;;;5057242;28;20202;-29
2022/12/25 10:21:59;;;;;;;4.33;3.57;;;12.70;99.90;;;;;;5043800;28;20209;-29
2022/12/25 10:24:41;;;;;;;5.53;3.70;;;12.70;99.90;;;;;;5056300;28;20282;-29
2022/12/25 10:27:18;;;;;;;5.50;3.60;;;12.70;99.90;;;;;;5055281;28;20224;-29
2022/12/25 10:29:53;;;;;;;4.57;3.40;;;12.70;99.90;;;;;;5066096;28;20669;-29
2022/12/25 10:32:23;;;;;;;3.30;2.90;;;12.70;99.90;;;;;;5064695;28;20195;-33
2022/12/25 10:34:50;;;;;;;3.53;2.90;;;12.70;99.90;;;;;;5067745;28;20264;-29
2022/12/25 10:37:18;;;;;;;3.57;2.87;;;12.70;99.90;;;;;;5067233;28;20677;-29
2022/12/25 10:39:52;;;;;;;4.60;2.93;;;12.70;99.90;;;;;;5067583;28;20211;-29
2022/12/25 10:42:27;;;;;;;3.03;2.73;;;12.70;99.90;;;;;;5064898;28;20763;-29
2022/12/25 10:45:00;;;;;;;5.00;3.00;;;12.80;99.90;;;;;;5047060;28;20307;-29
2022/12/25 10:47:36;;;;;;;3.63;2.70;;;12.70;99.90;;;;;;5053037;28;20223;-29
2022/12/25 10:50:21;;;;;;;3.37;3.00;;;12.70;99.90;;;;;;5067084;28;20648;-29
2022/12/25 10:53:03;;;;;;;4.13;3.23;;;12.80;99.90;;;;;;5066959;28;20259;-29
2022/12/25 10:55:33;;;;;;;3.80;3.07;;;12.80;99.90;;;;;;5065087;28;20665;-29
2022/12/25 10:58:05;;;;;;;3.90;3.40;;;12.70;99.90;;;;;;5066245;28;20238;-29
2022/12/25 11:00:37;;;;;;;4.13;3.47;;;12.70;99.90;;;;;;5066785;28;20763;-29
2022/12/25 11:03:04;;;;;;;4.43;3.97;;;12.70;99.90;;;;;;5064690;28;20208;-28
2022/12/25 11:05:35;;;;;;;5.90;3.70;;;12.70;99.90;;;;;;5065406;28;20210;-28
2022/12/25 11:08:20;;;;;;;3.23;2.83;;;12.70;99.90;;;;;;5066165;28;20333;-28
2022/12/25 11:11:04;;;;;;;6.13;3.40;;;12.70;99.90;;;;;;5064440;28;20224;-28
2022/12/25 11:13:46;;;;;;;3.67;2.83;;;12.70;99.90;;;;;;5059956;28;20199;-28
2022/12/25 11:16:24;;;;;;;3.97;3.27;;;12.70;99.90;;;;;;5066796;28;20249;-28
2022/12/25 11:18:55;;;;;;;4.20;3.17;;;12.70;99.90;;;;;;5066638;28;20234;-28
2022/12/25 11:21:27;;;;;;;3.57;3.10;;;12.70;99.90;;;;;;5052687;28;20295;-28
2022/12/25 11:24:05;;;;;;;4.03;3.43;;;12.70;99.90;;;;;;5066878;28;20505;-28
2022/12/25 11:26:55;;;;;;;4.17;3.23;;;12.70;99.90;;;;;;5049079;28;20689;-27
2022/12/25 11:29:42;;;;;;;4.13;3.43;;;12.70;99.90;;;;;;5054992;28;20212;-28
2022/12/25 11:32:29;;;;;;;3.97;3.20;;;12.70;99.90;;;;;;5056281;28;20739;-27
2022/12/25 11:35:00;;;;;;;3.87;3.17;;;12.70;99.90;;;;;;5065335;28;20290;-27
2022/12/25 11:37:39;;;;;;;4.13;3.47;;;12.70;99.90;;;;;;5062403;28;20212;-27
2022/12/25 11:40:14;;;;;;;3.37;3.00;;;12.70;99.90;;;;;;5051004;28;20261;-27
2022/12/25 11:42:48;;;;;;;3.90;3.23;;;12.70;99.90;;;;;;5058887;28;20231;-27
2022/12/25 11:45:34;;;;;;;3.80;3.20;;;12.70;99.90;;;;;;5064646;28;20280;-27
2022/12/25 11:48:13;;;;;;;4.00;3.20;;;12.70;99.90;;;;;;5063596;28;20219;-27
2022/12/25 11:50:42;;;;;;;3.70;3.30;;;12.70;99.90;;;;;;5054960;28;20741;-27
2022/12/25 11:53:50;;;;;;;4.07;3.27;;;12.70;99.90;;;;;;5063094;28;20237;-27
2022/12/25 11:56:22;;;;;;;3.13;2.83;;;12.70;99.90;;;;;;5040737;28;20293;-27
2022/12/25 11:59:30;;;;;;;3.90;3.50;;;12.70;99.90;;;;;;5065649;28;20333;-26
2022/12/25 12:02:22;;;;;;;3.30;3.00;;;12.70;99.90;;;;;;5065514;28;20682;-28
2022/12/25 12:05:17;;;;;;;3.70;3.40;;;12.70;99.90;;;;;;5064249;28;20780;-27
2022/12/25 12:07:58;;;;;;;3.03;2.73;;;12.70;99.90;;;;;;5063362;28;20227;-27
2022/12/25 12:10:58;;;;;;;2.90;2.70;;;12.70;99.90;;;;;;5063316;28;20602;-27
2022/12/25 12:13:39;;;;;;;2.67;2.47;;;12.70;99.90;;;;;;5044976;28;20228;-27
2022/12/25 12:16:08;;;;;;;2.33;2.20;;;12.70;99.90;;;;;;5045398;28;20204;-27
2022/12/25 12:18:36;;;;;;;2.67;2.47;;;12.70;99.90;;;;;;5044873;28;20234;-27
2022/12/25 12:21:05;;;;;;;2.30;2.10;;;12.70;99.90;;;;;;5045353;28;20227;-27
2022/12/25 12:24:04;;;;;;;2.10;1.90;;;12.70;99.90;;;;;;5045025;28;20615;-27
2022/12/25 12:26:36;;;;;;;2.43;2.23;;;12.70;99.90;;;;;;5043019;28;20484;-27
2022/12/25 12:29:23;;;;;;;1.87;1.77;;;12.70;99.90;;;;;;5049021;28;20215;-27
2022/12/25 12:31:54;;;;;;;2.30;2.10;;;12.70;99.90;;;;;;5063379;28;20199;-27
2022/12/25 12:34:39;;;;;;;2.70;2.40;;;12.70;99.90;;;;;;5061926;28;20590;-27
2022/12/25 12:37:16;;;;;;;2.70;2.50;;;12.70;99.90;;;;;;5064209;28;20689;-27
2022/12/25 12:39:53;;;;;;;2.50;2.30;;;12.70;99.90;;;;;;5064639;28;20261;-27
2022/12/25 12:42:49;;;;;;;2.50;2.30;;;12.70;99.90;;;;;;5063481;28;20207;-27
2022/12/25 12:45:30;;;;;;;2.83;2.63;;;12.70;99.90;;;;;;5064544;28;20208;-29
2022/12/25 12:47:57;;;;;;;2.43;2.23;;;12.70;99.90;;;;;;5076924;28;20273;-27
2022/12/25 12:50:27;;;;;;;2.67;2.47;;;12.70;99.90;;;;;;5044567;28;20417;-27
2022/12/25 12:52:55;;;;;;;3.00;2.77;;;12.70;99.90;;;;;;5044508;28;20261;-27
2022/12/25 12:55:34;;;;;;;3.10;2.60;;;12.70;99.90;;;;;;5062182;28;20680;-27
2022/12/25 12:58:11;;;;;;;3.10;2.80;;;12.70;99.90;;;;;;5050528;28;20327;-27
2022/12/25 13:01:10;;;;;;;3.53;3.23;;;12.70;99.90;;;;;;5059449;28;20654;-27
2022/12/25 13:04:19;;;;;;;3.20;2.97;;;12.70;99.90;;;;;;5037000;28;20226;-27
2022/12/25 13:07:03;;;;;;;2.90;2.70;;;12.70;99.90;;;;;;5062469;28;20222;-27
2022/12/25 13:09:42;;;;;;;3.43;2.77;;;12.70;99.90;;;;;;5063121;28;20248;-27
2022/12/25 13:12:11;;;;;;;3.30;3.00;;;12.70;99.90;;;;;;5068092;28;20191;-27
2022/12/25 13:14:48;;;;;;;3.17;2.87;;;12.70;99.90;;;;;;5069209;28;20204;-27
2022/12/25 13:17:22;;;;;;;3.60;3.30;;;12.70;99.90;;;;;;5069306;28;20230;-27
2022/12/25 13:19:58;;;;;;;3.83;3.53;;;12.80;99.90;;;;;;5067063;28;20227;-27
2022/12/25 13:22:31;;;;;;;4.00;3.40;;;12.80;99.90;;;;;;5048680;28;20199;-27
2022/12/25 13:25:03;;;;;;;4.40;4.00;;;12.80;99.90;;;;;;5063436;28;20219;-27
2022/12/25 13:27:34;;;;;;;4.07;3.60;;;12.80;99.90;;;;;;5067703;28;20215;-27
2022/12/25 13:30:17;;;;;;;4.63;4.17;;;12.80;99.90;;;;;;5052061;28;20211;-27
2022/12/25 13:32:48;;;;;;;5.70;4.60;;;12.80;99.90;;;;;;5047873;28;20703;-27
2022/12/25 13:35:17;;;;;;;5.37;4.70;;;12.80;99.90;;;;;;5048254;28;20206;-27
2022/12/25 13:37:46;;;;;;;6.37;5.17;;;12.80;99.90;;;;;;5046408;28;20261;-27
2022/12/25 13:40:26;;;;;;;6.70;5.43;;;12.80;99.90;;;;;;5056238;28;20246;-27
2022/12/25 13:42:59;;;;;;;9.00;4.97;;;12.80;99.90;;;;;;5067355;28;20199;-27
2022/12/25 13:45:32;;;;;;;5.93;4.30;;;12.80;99.90;;;;;;5068457;28;20200;-27
2022/12/25 13:48:13;;;;;;;4.57;4.13;;;12.90;99.90;;;;;;5067799;28;20215;-27
2022/12/25 13:50:47;;;;;;;4.60;4.10;;;12.90;99.90;;;;;;5067811;28;20239;-27
2022/12/25 13:53:17;;;;;;;4.40;3.70;;;12.90;99.90;;;;;;5067729;28;20200;-27
2022/12/25 13:55:53;;;;;;;4.10;3.70;;;12.90;99.90;;;;;;5048424;28;20273;-27
2022/12/25 13:58:29;;;;;;;6.27;4.33;;;12.90;99.90;;;;;;5045905;28;20208;-27
2022/12/25 14:00:58;;;;;;;5.37;4.40;;;12.90;99.90;;;;;;5048057;28;20274;-27
2022/12/25 14:03:39;;;;;;;4.50;4.10;;;12.90;99.90;;;;;;5039691;28;20208;-27
2022/12/25 14:06:20;;;;;;;5.07;4.30;;;12.90;99.90;;;;;;5061502;28;20222;-27
2022/12/25 14:08:47;;;;;;;5.17;4.67;;;12.90;99.90;;;;;;5065261;28;20232;-27
2022/12/25 14:11:21;;;;;;;4.97;4.47;;;12.90;99.90;;;;;;5047461;28;20720;-27
2022/12/25 14:14:02;;;;;;;5.20;4.70;;;12.90;99.90;;;;;;5049420;28;20243;-27
2022/12/25 14:16:33;;;;;;;6.07;4.57;;;13.00;99.90;;;;;;5052136;28;20744;-27
2022/12/25 14:19:01;;;;;;;5.40;4.90;;;13.00;99.90;;;;;;5063205;28;20207;-27
2022/12/25 14:21:37;;;;;;;6.33;5.27;;;13.00;99.90;;;;;;5066872;28;20200;-27
2022/12/25 14:24:12;;;;;;;5.63;5.03;;;13.00;99.90;;;;;;5054320;28;20310;-27
2022/12/25 14:26:40;;;;;;;6.40;4.90;;;13.00;99.90;;;;;;5056950;28;20234;-29
2022/12/25 14:29:14;;;;;;;6.73;5.10;;;13.00;99.90;;;;;;5053533;28;20663;-29
2022/12/25 14:31:48;;;;;;;6.97;5.30;;;13.00;99.90;;;;;;5060233;28;20710;-29
2022/12/25 14:34:22;;;;;;;6.83;5.70;;;13.00;99.90;;;;;;5062162;28;20249;-29
2022/12/25 14:36:50;;;;;;;6.43;5.77;;;13.00;99.90;;;;;;5066692;28;20206;-29
2022/12/25 14:39:35;;;;;;;6.30;5.70;;;13.00;99.90;;;;;;5067321;28;20277;-27
2022/12/25 14:42:20;;;;;;;6.90;5.93;;;13.00;99.90;;;;;;5063890;28;20276;-27
2022/12/25 14:45:40;;;;;;;7.07;6.33;;;13.00;99.90;;;;;;5056066;28;21005;-27
2022/12/25 14:48:22;;;;;;;7.93;6.07;;;13.00;99.90;;;;;;5050393;28;20689;-27
2022/12/25 14:51:03;;;;;;;6.97;6.17;;;13.00;99.90;;;;;;5065073;28;20411;-27
2022/12/25 14:53:38;;;;;;;7.07;6.23;;;13.00;99.90;;;;;;5047006;28;20290;-27
2022/12/25 14:56:09;;;;;;;6.83;6.23;;;13.00;99.90;;;;;;5046858;28;20227;-27
2022/12/25 14:58:42;;;;;;;8.03;6.37;;;13.00;99.90;;;;;;5048507;28;20337;-27
2022/12/25 15:01:28;;;;;;;7.47;6.77;;;13.00;99.90;;;;;;5062853;28;20334;-27
2022/12/25 15:04:11;;;;;;;6.60;5.93;;;13.00;99.90;;;;;;5049012;28;20504;-27
2022/12/25 15:06:40;;;;;;;8.33;6.23;;;13.00;99.90;;;;;;5047086;28;20695;-27
2022/12/25 15:09:16;;;;;;;7.33;6.60;;;13.00;99.90;;;;;;5046307;28;20285;-28
2022/12/25 15:11:50;;;;;;;8.53;6.73;;;13.10;99.90;;;;;;5061952;28;20417;-27